sensor_id;sensor_type;location;lat;lon;timestamp;temperature;humidity
14144;DHT22;7152;48.348;10.980;2023-12-14T16:18:59;6.00;99.90
14144;DHT22;7152;48.348;10.980;2023-12-14T16:21:27;5.90;99.90
14144;DHT22;7152;48.348;10.980;2023-12-14T16:23:55;6.00;99.90
14144;DHT22;7152;48.348;10.980;2023-12-14T16:26:21;6.00;99.90
14144;DHT22;7152;48.348;10.980;2023-12-14T16:28:47;6.10;99.90
14144;DHT22;7152;48.348;10.980;2023-12-14T16:31:13;6.10;99.90
14144;DHT22;7152;48.348;10.980;2023-12-14T16:33:39;6.20;99.90
14144;DHT22;7152;48.348;10.980;2023-12-14T16:36:11;6.20;99.90
14144;DHT22;7152;48.348;10.980;2023-12-14T16:38:39;6.30;99.90
14144;DHT22;7152;48.348;10.980;2023-12-14T16:41:05;6.30;99.90
14144;DHT22;7152;48.348;10.980;2023-12-14T16:43:30;6.30;99.90
14144;DHT22;7152;48.348;10.980;2023-12-14T16:45:58;6.30;99.90
14144;DHT22;7152;48.348;10.980;2023-12-14T16:48:24;6.30;99.90
14144;DHT22;7152;48.348;10.980;2023-12-14T16:50:50;6.30;99.90
14144;DHT22;7152;48.348;10.980;2023-12-14T16:53:20;6.40;99.90
14144;DHT22;7152;48.348;10.980;2023-12-14T16:55:46;6.40;99.90
14144;DHT22;7152;48.348;10.980;2023-12-14T16:58:12;6.40;99.90
14144;DHT22;7152;48.348;10.980;2023-12-14T17:00:37;6.40;99.90
14144;DHT22;7152;48.348;10.980;2023-12-14T17:03:03;6.30;99.90
14144;DHT22;7152;48.348;10.980;2023-12-14T17:05:31;6.30;99.90
14144;DHT22;7152;48.348;10.980;2023-12-14T17:07:57;6.30;99.90
14144;DHT22;7152;48.348;10.980;2023-12-14T17:10:23;6.30;99.90
14144;DHT22;7152;48.348;10.980;2023-12-14T17:12:49;6.30;99.90
14144;DHT22;7152;48.348;10.980;2023-12-14T17:15:15;6.20;99.90
14144;DHT22;7152;48.348;10.980;2023-12-14T17:17:41;6.20;99.90
14144;DHT22;7152;48.348;10.980;2023-12-14T17:20:07;6.10;99.90
14144;DHT22;7152;48.348;10.980;2023-12-14T17:22:33;6.10;99.90
14144;DHT22;7152;48.348;10.980;2023-12-14T17:25:05;6.00;99.90
14144;DHT22;7152;48.348;10.980;2023-12-14T17:27:34;6.00;99.90
14144;DHT22;7152;48.348;10.980;2023-12-14T17:30:00;6.00;99.90
14144;DHT22;7152;48.348;10.980;2023-12-14T17:32:25;6.00;99.90
14144;DHT22;7152;48.348;10.980;2023-12-14T17:34:51;6.00;99.90
14144;DHT22;7152;48.348;10.980;2023-12-14T17:37:17;5.90;99.90
14144;DHT22;7152;48.348;10.980;2023-12-14T17:39:43;5.90;99.90
14144;DHT22;7152;48.348;10.980;2023-12-14T17:42:09;5.90;99.90
14144;DHT22;7152;48.348;10.980;2023-12-14T17:44:35;5.90;99.90
14144;DHT22;7152;48.348;10.980;2023-12-14T17:47:01;5.90;99.90
14144;DHT22;7152;48.348;10.980;2023-12-14T17:49:27;5.90;99.90
14144;DHT22;7152;48.348;10.980;2023-12-14T17:51:53;5.90;99.90
14144;DHT22;7152;48.348;10.980;2023-12-14T17:54:19;5.90;99.90
14144;DHT22;7152;48.348;10.980;2023-12-14T17:56:45;5.90;99.90
14144;DHT22;7152;48.348;10.980;2023-12-14T17:59:11;5.80;99.90
14144;DHT22;7152;48.348;10.980;2023-12-14T18:01:46;5.80;99.90
14144;DHT22;7152;48.348;10.980;2023-12-14T18:04:13;5.80;99.90
14144;DHT22;7152;48.348;10.980;2023-12-14T18:06:45;5.80;99.90
14144;DHT22;7152;48.348;10.980;2023-12-14T18:09:13;5.80;99.90
14144;DHT22;7152;48.348;10.980;2023-12-14T18:11:39;5.80;99.90
14144;DHT22;7152;48.348;10.980;2023-12-14T18:14:06;5.80;99.90
14144;DHT22;7152;48.348;10.980;2023-12-14T18:16:32;5.80;99.90
14144;DHT22;7152;48.348;10.980;2023-12-14T18:18:58;5.80;99.90
14144;DHT22;7152;48.348;10.980;2023-12-14T18:21:24;5.80;99.90
14144;DHT22;7152;48.348;10.980;2023-12-14T18:23:50;5.80;99.90
14144;DHT22;7152;48.348;10.980;2023-12-14T18:26:16;5.80;99.90
14144;DHT22;7152;48.348;10.980;2023-12-14T18:28:42;5.80;99.90
14144;DHT22;7152;48.348;10.980;2023-12-14T18:31:08;5.80;99.90
14144;DHT22;7152;48.348;10.980;2023-12-14T18:33:35;5.80;99.90
14144;DHT22;7152;48.348;10.980;2023-12-14T18:36:04;5.90;99.90
14144;DHT22;7152;48.348;10.980;2023-12-14T18:38:30;5.90;99.90
14144;DHT22;7152;48.348;10.980;2023-12-14T18:40:59;5.90;99.90
14144;DHT22;7152;48.348;10.980;2023-12-14T18:43:25;5.90;99.90
14144;DHT22;7152;48.348;10.980;2023-12-14T18:45:51;5.90;99.90
14144;DHT22;7152;48.348;10.980;2023-12-14T18:48:18;5.90;99.90
14144;DHT22;7152;48.348;10.980;2023-12-14T18:50:44;5.90;99.90
14144;DHT22;7152;48.348;10.980;2023-12-14T18:53:10;5.90;99.90
14144;DHT22;7152;48.348;10.980;2023-12-14T18:55:36;6.00;99.90
14144;DHT22;7152;48.348;10.980;2023-12-14T18:58:06;5.90;99.90
14144;DHT22;7152;48.348;10.980;2023-12-14T19:00:32;5.90;99.90
14144;DHT22;7152;48.348;10.980;2023-12-14T19:02:58;5.90;99.90
14144;DHT22;7152;48.348;10.980;2023-12-14T19:05:24;5.90;99.90
14144;DHT22;7152;48.348;10.980;2023-12-14T19:07:55;5.80;99.90
14144;DHT22;7152;48.348;10.980;2023-12-14T19:10:20;5.70;99.90
14144;DHT22;7152;48.348;10.980;2023-12-14T19:12:49;5.60;99.90
14144;DHT22;7152;48.348;10.980;2023-12-14T19:15:15;5.60;99.90
14144;DHT22;7152;48.348;10.980;2023-12-14T19:17:41;5.60;99.90
14144;DHT22;7152;48.348;10.980;2023-12-14T19:20:08;5.60;99.90
14144;DHT22;7152;48.348;10.980;2023-12-14T19:22:35;5.60;99.90
14144;DHT22;7152;48.348;10.980;2023-12-14T19:25:06;5.60;99.90
14144;DHT22;7152;48.348;10.980;2023-12-14T19:27:34;5.50;99.90
14144;DHT22;7152;48.348;10.980;2023-12-14T19:30:02;5.50;99.90
14144;DHT22;7152;48.348;10.980;2023-12-14T19:32:29;5.50;99.90
14144;DHT22;7152;48.348;10.980;2023-12-14T19:34:54;5.40;99.90
14144;DHT22;7152;48.348;10.980;2023-12-14T19:37:20;5.40;99.90
14144;DHT22;7152;48.348;10.980;2023-12-14T19:39:46;5.30;99.90
14144;DHT22;7152;48.348;10.980;2023-12-14T19:42:12;5.30;99.90
14144;DHT22;7152;48.348;10.980;2023-12-14T19:44:38;5.30;99.90
14144;DHT22;7152;48.348;10.980;2023-12-14T19:47:04;5.30;99.90
14144;DHT22;7152;48.348;10.980;2023-12-14T19:49:29;5.40;99.90
14144;DHT22;7152;48.348;10.980;2023-12-14T19:51:56;5.40;99.90
14144;DHT22;7152;48.348;10.980;2023-12-14T19:54:22;5.40;99.90
14144;DHT22;7152;48.348;10.980;2023-12-14T19:56:47;5.40;99.90
14144;DHT22;7152;48.348;10.980;2023-12-14T19:59:13;5.40;99.90
14144;DHT22;7152;48.348;10.980;2023-12-14T20:01:39;5.30;99.90
14144;DHT22;7152;48.348;10.980;2023-12-14T20:04:06;5.40;99.90
14144;DHT22;7152;48.348;10.980;2023-12-14T20:06:32;5.40;99.90
14144;DHT22;7152;48.348;10.980;2023-12-14T20:08:58;5.40;99.90
14144;DHT22;7152;48.348;10.980;2023-12-14T20:11:24;5.40;99.90
14144;DHT22;7152;48.348;10.980;2023-12-14T20:13:52;5.40;99.90
14144;DHT22;7152;48.348;10.980;2023-12-14T20:16:17;5.40;99.90
14144;DHT22;7152;48.348;10.980;2023-12-14T20:18:43;5.40;99.90
14144;DHT22;7152;48.348;10.980;2023-12-14T20:21:09;5.40;99.90
14144;DHT22;7152;48.348;10.980;2023-12-14T20:23:35;5.50;99.90
14144;DHT22;7152;48.348;10.980;2023-12-14T20:26:01;5.50;99.90
14144;DHT22;7152;48.348;10.980;2023-12-14T20:28:27;5.50;99.90
14144;DHT22;7152;48.348;10.980;2023-12-14T20:30:53;5.50;99.90
14144;DHT22;7152;48.348;10.980;2023-12-14T20:33:18;5.60;99.90
14144;DHT22;7152;48.348;10.980;2023-12-14T20:35:44;5.60;99.90
14144;DHT22;7152;48.348;10.980;2023-12-14T20:38:10;5.60;99.90
14144;DHT22;7152;48.348;10.980;2023-12-14T20:40:36;5.60;99.90
14144;DHT22;7152;48.348;10.980;2023-12-14T20:43:02;5.60;99.90
14144;DHT22;7152;48.348;10.980;2023-12-14T20:45:28;5.50;99.90
14144;DHT22;7152;48.348;10.980;2023-12-14T20:47:54;5.50;99.90
14144;DHT22;7152;48.348;10.980;2023-12-14T20:50:20;5.50;99.90
14144;DHT22;7152;48.348;10.980;2023-12-14T20:52:47;5.50;99.90
14144;DHT22;7152;48.348;10.980;2023-12-14T20:55:13;5.50;99.90
14144;DHT22;7152;48.348;10.980;2023-12-14T20:57:40;5.50;99.90
14144;DHT22;7152;48.348;10.980;2023-12-14T21:00:07;5.50;99.90
14144;DHT22;7152;48.348;10.980;2023-12-14T21:02:36;5.50;99.90
14144;DHT22;7152;48.348;10.980;2023-12-14T21:05:02;5.50;99.90
14144;DHT22;7152;48.348;10.980;2023-12-14T21:07:28;5.50;99.90
14144;DHT22;7152;48.348;10.980;2023-12-14T21:09:54;5.60;99.90
14144;DHT22;7152;48.348;10.980;2023-12-14T21:12:20;5.60;99.90
14144;DHT22;7152;48.348;10.980;2023-12-14T21:14:53;5.60;99.90
14144;DHT22;7152;48.348;10.980;2023-12-14T21:17:20;5.60;99.90
14144;DHT22;7152;48.348;10.980;2023-12-14T21:19:50;5.50;99.90
14144;DHT22;7152;48.348;10.980;2023-12-14T21:22:16;5.60;99.90
14144;DHT22;7152;48.348;10.980;2023-12-14T21:24:43;5.60;99.90
14144;DHT22;7152;48.348;10.980;2023-12-14T21:27:10;5.60;99.90
14144;DHT22;7152;48.348;10.980;2023-12-14T21:29:54;5.50;99.90
14144;DHT22;7152;48.348;10.980;2023-12-14T21:32:21;5.60;99.90
14144;DHT22;7152;48.348;10.980;2023-12-14T21:34:47;5.50;99.90
14144;DHT22;7152;48.348;10.980;2023-12-14T21:37:14;5.50;99.90
14144;DHT22;7152;48.348;10.980;2023-12-14T21:39:40;5.50;99.90
14144;DHT22;7152;48.348;10.980;2023-12-14T21:42:05;5.50;99.90
14144;DHT22;7152;48.348;10.980;2023-12-14T21:44:32;5.50;99.90
14144;DHT22;7152;48.348;10.980;2023-12-14T21:46:58;5.40;99.90
14144;DHT22;7152;48.348;10.980;2023-12-14T21:49:27;5.40;99.90
14144;DHT22;7152;48.348;10.980;2023-12-14T21:51:52;5.40;99.90
14144;DHT22;7152;48.348;10.980;2023-12-14T21:54:18;5.40;99.90
14144;DHT22;7152;48.348;10.980;2023-12-14T21:56:44;5.40;99.90
14144;DHT22;7152;48.348;10.980;2023-12-14T21:59:10;5.30;99.90
14144;DHT22;7152;48.348;10.980;2023-12-14T22:01:36;5.30;99.90
14144;DHT22;7152;48.348;10.980;2023-12-14T22:04:02;5.20;99.90
14144;DHT22;7152;48.348;10.980;2023-12-14T22:06:29;5.20;99.90
14144;DHT22;7152;48.348;10.980;2023-12-14T22:08:55;5.20;99.90
14144;DHT22;7152;48.348;10.980;2023-12-14T22:11:22;5.20;99.90
14144;DHT22;7152;48.348;10.980;2023-12-14T22:13:48;5.20;99.90
14144;DHT22;7152;48.348;10.980;2023-12-14T22:16:14;5.20;99.90
14144;DHT22;7152;48.348;10.980;2023-12-14T22:18:40;5.20;99.90
14144;DHT22;7152;48.348;10.980;2023-12-14T22:21:08;5.20;99.90
14144;DHT22;7152;48.348;10.980;2023-12-14T22:23:35;5.20;99.90
14144;DHT22;7152;48.348;10.980;2023-12-14T22:26:02;5.20;99.90
14144;DHT22;7152;48.348;10.980;2023-12-14T22:28:28;5.20;99.90
14144;DHT22;7152;48.348;10.980;2023-12-14T22:30:54;5.20;99.90
14144;DHT22;7152;48.348;10.980;2023-12-14T22:33:19;5.10;99.90
14144;DHT22;7152;48.348;10.980;2023-12-14T22:35:45;5.20;99.90
14144;DHT22;7152;48.348;10.980;2023-12-14T22:38:11;5.20;99.90
